sensor_id;sensor_type;location;lat;lon;timestamp;pressure;altitude;pressure_sealevel;temperature;humidity
54407;BME280;40313;50.308;30.374;2023-06-10T00:01:51;99348.00;;;19.09;100.00
54407;BME280;40313;50.308;30.374;2023-06-10T00:04:20;99345.66;;;19.06;100.00
54407;BME280;40313;50.308;30.374;2023-06-10T00:06:47;99349.28;;;19.05;100.00
54407;BME280;40313;50.308;30.374;2023-06-10T00:09:15;99351.53;;;19.00;100.00
54407;BME280;40313;50.308;30.374;2023-06-10T00:11:42;99338.50;;;18.89;100.00
54407;BME280;40313;50.308;30.374;2023-06-10T00:14:10;99351.44;;;18.92;100.00
54407;BME280;40313;50.308;30.374;2023-06-10T00:16:36;99343.94;;;18.87;100.00
54407;BME280;40313;50.308;30.374;2023-06-10T00:19:04;99344.22;;;18.84;100.00
54407;BME280;40313;50.308;30.374;2023-06-10T00:21:33;99340.19;;;18.80;100.00
54407;BME280;40313;50.308;30.374;2023-06-10T00:24:03;99342.59;;;18.73;100.00
54407;BME280;40313;50.308;30.374;2023-06-10T00:26:30;99347.19;;;18.71;100.00
54407;BME280;40313;50.308;30.374;2023-06-10T00:28:57;99326.94;;;18.62;100.00
54407;BME280;40313;50.308;30.374;2023-06-10T00:31:25;99340.28;;;18.60;100.00
54407;BME280;40313;50.308;30.374;2023-06-10T00:33:52;99336.66;;;18.61;100.00
54407;BME280;40313;50.308;30.374;2023-06-10T00:36:19;99334.47;;;18.57;100.00
54407;BME280;40313;50.308;30.374;2023-06-10T00:38:45;99340.16;;;18.62;100.00
54407;BME280;40313;50.308;30.374;2023-06-10T00:41:12;99333.19;;;18.61;100.00
54407;BME280;40313;50.308;30.374;2023-06-10T00:43:38;99329.72;;;18.60;100.00
54407;BME280;40313;50.308;30.374;2023-06-10T00:46:05;99330.59;;;18.51;100.00
54407;BME280;40313;50.308;30.374;2023-06-10T00:48:33;99326.44;;;18.48;100.00
54407;BME280;40313;50.308;30.374;2023-06-10T00:51:00;99329.81;;;18.41;100.00
54407;BME280;40313;50.308;30.374;2023-06-10T00:53:27;99327.03;;;18.33;100.00
54407;BME280;40313;50.308;30.374;2023-06-10T00:55:54;99325.38;;;18.31;100.00
54407;BME280;40313;50.308;30.374;2023-06-10T00:58:21;99331.09;;;18.27;100.00
54407;BME280;40313;50.308;30.374;2023-06-10T01:00:49;99322.38;;;18.17;100.00
54407;BME280;40313;50.308;30.374;2023-06-10T01:03:16;99326.00;;;18.06;100.00
54407;BME280;40313;50.308;30.374;2023-06-10T01:05:48;99330.16;;;18.08;100.00
54407;BME280;40313;50.308;30.374;2023-06-10T01:08:21;99326.72;;;17.98;100.00
54407;BME280;40313;50.308;30.374;2023-06-10T01:10:54;99331.84;;;17.90;100.00
54407;BME280;40313;50.308;30.374;2023-06-10T01:13:22;99324.38;;;17.95;100.00
54407;BME280;40313;50.308;30.374;2023-06-10T01:15:50;99329.19;;;17.90;100.00
54407;BME280;40313;50.308;30.374;2023-06-10T01:18:17;99330.88;;;17.81;100.00
54407;BME280;40313;50.308;30.374;2023-06-10T01:20:46;99335.34;;;17.81;100.00
54407;BME280;40313;50.308;30.374;2023-06-10T01:23:15;99338.78;;;17.71;100.00
54407;BME280;40313;50.308;30.374;2023-06-10T01:25:46;99333.81;;;17.68;100.00
54407;BME280;40313;50.308;30.374;2023-06-10T01:28:17;99340.91;;;17.68;100.00
54407;BME280;40313;50.308;30.374;2023-06-10T01:30:49;99334.63;;;17.59;100.00
54407;BME280;40313;50.308;30.374;2023-06-10T01:33:25;99343.09;;;17.53;100.00
54407;BME280;40313;50.308;30.374;2023-06-10T01:35:52;99338.25;;;17.48;100.00
54407;BME280;40313;50.308;30.374;2023-06-10T01:38:21;99340.31;;;17.44;100.00
54407;BME280;40313;50.308;30.374;2023-06-10T01:40:49;99338.78;;;17.52;100.00
54407;BME280;40313;50.308;30.374;2023-06-10T01:43:17;99345.47;;;17.56;100.00
54407;BME280;40313;50.308;30.374;2023-06-10T01:45:44;99339.78;;;17.51;100.00
54407;BME280;40313;50.308;30.374;2023-06-10T01:48:10;99349.34;;;17.52;100.00
54407;BME280;40313;50.308;30.374;2023-06-10T01:50:37;99334.06;;;17.45;100.00
54407;BME280;40313;50.308;30.374;2023-06-10T01:53:04;99338.25;;;17.48;100.00
54407;BME280;40313;50.308;30.374;2023-06-10T01:55:32;99341.16;;;17.45;100.00
54407;BME280;40313;50.308;30.374;2023-06-10T01:57:58;99339.91;;;17.49;100.00
54407;BME280;40313;50.308;30.374;2023-06-10T02:00:25;99341.50;;;17.01;100.00
54407;BME280;40313;50.308;30.374;2023-06-10T02:02:51;99338.19;;;16.99;100.00
54407;BME280;40313;50.308;30.374;2023-06-10T02:05:18;99339.06;;;17.49;100.00
54407;BME280;40313;50.308;30.374;2023-06-10T02:07:45;99340.59;;;17.61;100.00
54407;BME280;40313;50.308;30.374;2023-06-10T02:10:11;99347.13;;;17.57;100.00
54407;BME280;40313;50.308;30.374;2023-06-10T02:12:39;99341.84;;;17.57;100.00
54407;BME280;40313;50.308;30.374;2023-06-10T02:15:06;99345.44;;;17.46;100.00
54407;BME280;40313;50.308;30.374;2023-06-10T02:17:32;99351.44;;;17.68;100.00
54407;BME280;40313;50.308;30.374;2023-06-10T02:19:59;99344.50;;;17.67;100.00
54407;BME280;40313;50.308;30.374;2023-06-10T02:22:32;99335.34;;;17.61;100.00
54407;BME280;40313;50.308;30.374;2023-06-10T02:24:59;99347.41;;;17.64;100.00
54407;BME280;40313;50.308;30.374;2023-06-10T02:27:25;99351.59;;;17.66;100.00
54407;BME280;40313;50.308;30.374;2023-06-10T02:29:53;99350.06;;;17.73;100.00
54407;BME280;40313;50.308;30.374;2023-06-10T02:32:20;99331.44;;;17.75;100.00
54407;BME280;40313;50.308;30.374;2023-06-10T02:34:46;99353.38;;;17.85;100.00
54407;BME280;40313;50.308;30.374;2023-06-10T02:37:14;99353.22;;;17.87;100.00
54407;BME280;40313;50.308;30.374;2023-06-10T02:39:40;99358.53;;;17.96;100.00
54407;BME280;40313;50.308;30.374;2023-06-10T02:42:07;99352.13;;;17.89;100.00
54407;BME280;40313;50.308;30.374;2023-06-10T02:44:34;99358.25;;;18.00;100.00
54407;BME280;40313;50.308;30.374;2023-06-10T02:47:02;99357.13;;;18.12;100.00
54407;BME280;40313;50.308;30.374;2023-06-10T02:49:29;99359.34;;;18.17;100.00
54407;BME280;40313;50.308;30.374;2023-06-10T02:51:55;99369.31;;;18.23;100.00
54407;BME280;40313;50.308;30.374;2023-06-10T02:54:22;99367.00;;;18.47;100.00
54407;BME280;40313;50.308;30.374;2023-06-10T02:56:49;99360.59;;;18.60;100.00
54407;BME280;40313;50.308;30.374;2023-06-10T02:59:16;99368.03;;;18.74;100.00
54407;BME280;40313;50.308;30.374;2023-06-10T03:01:42;99352.19;;;18.74;100.00
54407;BME280;40313;50.308;30.374;2023-06-10T03:04:10;99370.88;;;19.01;100.00
54407;BME280;40313;50.308;30.374;2023-06-10T03:06:39;99363.28;;;19.15;100.00
54407;BME280;40313;50.308;30.374;2023-06-10T03:09:06;99364.34;;;19.23;100.00
54407;BME280;40313;50.308;30.374;2023-06-10T03:11:33;99368.50;;;19.43;100.00
54407;BME280;40313;50.308;30.374;2023-06-10T03:13:59;99368.75;;;19.50;100.00
54407;BME280;40313;50.308;30.374;2023-06-10T03:16:28;99375.31;;;19.64;100.00
54407;BME280;40313;50.308;30.374;2023-06-10T03:18:55;99368.13;;;19.74;100.00
54407;BME280;40313;50.308;30.374;2023-06-10T03:21:23;99369.38;;;19.80;100.00
54407;BME280;40313;50.308;30.374;2023-06-10T03:23:49;99362.41;;;19.97;100.00
54407;BME280;40313;50.308;30.374;2023-06-10T03:26:16;99379.72;;;20.09;100.00
54407;BME280;40313;50.308;30.374;2023-06-10T03:28:46;99367.97;;;20.38;100.00
54407;BME280;40313;50.308;30.374;2023-06-10T03:31:13;99367.06;;;21.41;100.00
54407;BME280;40313;50.308;30.374;2023-06-10T03:33:42;99363.47;;;21.83;100.00
54407;BME280;40313;50.308;30.374;2023-06-10T03:36:08;99366.97;;;22.08;100.00
54407;BME280;40313;50.308;30.374;2023-06-10T03:38:36;99372.59;;;22.38;100.00
54407;BME280;40313;50.308;30.374;2023-06-10T03:41:03;99379.69;;;22.63;100.00
54407;BME280;40313;50.308;30.374;2023-06-10T03:43:29;99382.38;;;22.94;100.00
54407;BME280;40313;50.308;30.374;2023-06-10T03:45:57;99376.25;;;22.37;100.00
54407;BME280;40313;50.308;30.374;2023-06-10T03:48:23;99374.81;;;23.22;100.00
54407;BME280;40313;50.308;30.374;2023-06-10T03:50:50;99377.16;;;23.17;100.00
54407;BME280;40313;50.308;30.374;2023-06-10T03:53:17;99375.41;;;23.33;100.00
54407;BME280;40313;50.308;30.374;2023-06-10T03:55:45;99378.03;;;23.41;100.00
54407;BME280;40313;50.308;30.374;2023-06-10T03:58:11;99381.63;;;23.48;100.00
54407;BME280;40313;50.308;30.374;2023-06-10T04:00:40;99384.16;;;23.41;100.00
54407;BME280;40313;50.308;30.374;2023-06-10T04:03:07;99383.97;;;23.43;100.00
54407;BME280;40313;50.308;30.374;2023-06-10T04:05:39;99384.28;;;23.48;100.00
54407;BME280;40313;50.308;30.374;2023-06-10T04:08:06;99387.25;;;23.53;100.00
54407;BME280;40313;50.308;30.374;2023-06-10T04:10:33;99385.53;;;23.60;100.00
54407;BME280;40313;50.308;30.374;2023-06-10T04:13:01;99390.78;;;23.22;100.00
54407;BME280;40313;50.308;30.374;2023-06-10T04:15:28;99385.84;;;23.66;100.00
54407;BME280;40313;50.308;30.374;2023-06-10T04:17:58;99382.03;;;23.83;100.00
54407;BME280;40313;50.308;30.374;2023-06-10T04:20:25;99376.69;;;24.06;100.00
54407;BME280;40313;50.308;30.374;2023-06-10T04:22:51;99378.88;;;25.00;100.00
54407;BME280;40313;50.308;30.374;2023-06-10T04:25:18;99379.38;;;26.06;100.00
54407;BME280;40313;50.308;30.374;2023-06-10T04:27:44;99376.03;;;27.90;100.00
54407;BME280;40313;50.308;30.374;2023-06-10T04:30:13;99382.44;;;28.16;100.00
54407;BME280;40313;50.308;30.374;2023-06-10T04:32:40;99375.41;;;27.88;100.00
54407;BME280;40313;50.308;30.374;2023-06-10T04:35:08;99377.47;;;27.73;100.00
54407;BME280;40313;50.308;30.374;2023-06-10T04:37:35;99383.25;;;27.70;100.00
54407;BME280;40313;50.308;30.374;2023-06-10T04:40:01;99377.69;;;27.71;100.00
54407;BME280;40313;50.308;30.374;2023-06-10T04:42:28;99381.41;;;27.84;98.89
54407;BME280;40313;50.308;30.374;2023-06-10T04:44:55;99377.41;;;28.73;93.18
54407;BME280;40313;50.308;30.374;2023-06-10T04:47:23;99379.78;;;28.95;92.89
54407;BME280;40313;50.308;30.374;2023-06-10T04:49:49;99374.34;;;31.95;81.61
54407;BME280;40313;50.308;30.374;2023-06-10T04:52:16;99374.84;;;34.51;70.07
54407;BME280;40313;50.308;30.374;2023-06-10T04:54:43;99377.78;;;34.27;66.66
54407;BME280;40313;50.308;30.374;2023-06-10T04:57:09;99382.25;;;33.37;65.58
54407;BME280;40313;50.308;30.374;2023-06-10T04:59:36;99376.41;;;32.64;66.24
54407;BME280;40313;50.308;30.374;2023-06-10T05:02:04;99377.75;;;32.37;68.84
54407;BME280;40313;50.308;30.374;2023-06-10T05:04:32;99371.31;;;33.95;64.23
54407;BME280;40313;50.308;30.374;2023-06-10T05:06:58;99371.13;;;35.02;60.65
54407;BME280;40313;50.308;30.374;2023-06-10T05:09:25;99367.44;;;34.86;58.63
54407;BME280;40313;50.308;30.374;2023-06-10T05:11:53;99371.31;;;35.17;59.62
54407;BME280;40313;50.308;30.374;2023-06-10T05:14:19;99371.31;;;37.67;53.70
54407;BME280;40313;50.308;30.374;2023-06-10T05:16:46;99373.50;;;37.65;51.52
54407;BME280;40313;50.308;30.374;2023-06-10T05:19:13;99377.34;;;36.70;52.44
54407;BME280;40313;50.308;30.374;2023-06-10T05:21:43;99370.22;;;35.78;54.64
54407;BME280;40313;50.308;30.374;2023-06-10T05:24:10;99366.63;;;37.21;52.25
54407;BME280;40313;50.308;30.374;2023-06-10T05:26:36;99360.88;;;38.46;49.56
54407;BME280;40313;50.308;30.374;2023-06-10T05:29:03;99358.47;;;38.29;49.35
54407;BME280;40313;50.308;30.374;2023-06-10T05:31:30;99369.16;;;37.33;49.63
54407;BME280;40313;50.308;30.374;2023-06-10T05:33:57;99372.16;;;36.15;51.93
54407;BME280;40313;50.308;30.374;2023-06-10T05:36:23;99373.06;;;35.28;52.53
54407;BME280;40313;50.308;30.374;2023-06-10T05:38:52;99365.09;;;34.50;53.50
54407;BME280;40313;50.308;30.374;2023-06-10T05:41:18;99367.66;;;34.23;53.92
54407;BME280;40313;50.308;30.374;2023-06-10T05:43:45;99368.72;;;33.71;54.41
54407;BME280;40313;50.308;30.374;2023-06-10T05:46:12;99367.81;;;33.19;55.46
54407;BME280;40313;50.308;30.374;2023-06-10T05:48:38;99362.31;;;32.85;56.52
54407;BME280;40313;50.308;30.374;2023-06-10T05:51:05;99368.94;;;31.95;56.35
54407;BME280;40313;50.308;30.374;2023-06-10T05:53:32;99375.13;;;31.11;57.39
54407;BME280;40313;50.308;30.374;2023-06-10T05:56:00;99367.25;;;31.28;58.89
54407;BME280;40313;50.308;30.374;2023-06-10T05:58:26;99370.84;;;32.30;57.71
54407;BME280;40313;50.308;30.374;2023-06-10T06:00:53;99359.69;;;35.22;53.32
54407;BME280;40313;50.308;30.374;2023-06-10T06:03:20;99359.75;;;38.58;47.83
54407;BME280;40313;50.308;30.374;2023-06-10T06:05:46;99364.09;;;41.09;42.79
54407;BME280;40313;50.308;30.374;2023-06-10T06:08:13;99358.31;;;43.38;39.71
54407;BME280;40313;50.308;30.374;2023-06-10T06:10:42;99365.28;;;45.40;37.69
54407;BME280;40313;50.308;30.374;2023-06-10T06:13:10;99365.84;;;46.58;33.94
54407;BME280;40313;50.308;30.374;2023-06-10T06:15:37;99364.19;;;46.36;34.05
54407;BME280;40313;50.308;30.374;2023-06-10T06:18:03;99360.69;;;47.20;30.72
54407;BME280;40313;50.308;30.374;2023-06-10T06:20:30;99359.50;;;43.91;33.55
54407;BME280;40313;50.308;30.374;2023-06-10T06:22:56;99359.53;;;46.57;32.18
54407;BME280;40313;50.308;30.374;2023-06-10T06:25:23;99355.06;;;48.33;31.29
54407;BME280;40313;50.308;30.374;2023-06-10T06:27:50;99356.75;;;49.75;30.33
54407;BME280;40313;50.308;30.374;2023-06-10T06:30:18;99357.50;;;48.87;27.25
54407;BME280;40313;50.308;30.374;2023-06-10T06:32:45;99361.69;;;50.85;29.42
54407;BME280;40313;50.308;30.374;2023-06-10T06:35:11;99354.88;;;52.11;28.01
54407;BME280;40313;50.308;30.374;2023-06-10T06:37:38;99361.78;;;51.08;24.47
54407;BME280;40313;50.308;30.374;2023-06-10T06:40:05;99356.38;;;48.88;27.25
54407;BME280;40313;50.308;30.374;2023-06-10T06:42:32;99359.72;;;50.50;26.70
54407;BME280;40313;50.308;30.374;2023-06-10T06:44:58;99350.38;;;49.75;26.44
54407;BME280;40313;50.308;30.374;2023-06-10T06:47:26;99360.94;;;50.17;26.41
54407;BME280;40313;50.308;30.374;2023-06-10T06:49:53;99356.56;;;49.84;24.39
54407;BME280;40313;50.308;30.374;2023-06-10T06:52:19;99359.44;;;49.72;26.03
54407;BME280;40313;50.308;30.374;2023-06-10T06:54:47;99357.75;;;49.39;25.92
54407;BME280;40313;50.308;30.374;2023-06-10T06:57:14;99352.97;;;48.54;27.01
54407;BME280;40313;50.308;30.374;2023-06-10T06:59:40;99358.06;;;48.52;26.69
54407;BME280;40313;50.308;30.374;2023-06-10T07:02:07;99356.03;;;49.62;26.18
54407;BME280;40313;50.308;30.374;2023-06-10T07:04:35;99356.28;;;49.57;26.59
54407;BME280;40313;50.308;30.374;2023-06-10T07:07:01;99351.94;;;49.72;26.13
54407;BME280;40313;50.308;30.374;2023-06-10T07:09:28;99348.75;;;48.73;26.21
54407;BME280;40313;50.308;30.374;2023-06-10T07:11:54;99352.97;;;49.68;26.02
54407;BME280;40313;50.308;30.374;2023-06-10T07:14:21;99345.63;;;47.51;27.89
54407;BME280;40313;50.308;30.374;2023-06-10T07:16:48;99342.94;;;42.92;30.63
54407;BME280;40313;50.308;30.374;2023-06-10T07:19:15;99348.28;;;38.55;34.72
54407;BME280;40313;50.308;30.374;2023-06-10T07:21:43;99362.00;;;34.64;40.36
54407;BME280;40313;50.308;30.374;2023-06-10T07:24:09;99365.97;;;33.08;45.56
54407;BME280;40313;50.308;30.374;2023-06-10T07:26:36;99363.47;;;32.13;50.26
54407;BME280;40313;50.308;30.374;2023-06-10T07:29:02;99360.25;;;30.34;57.65
54407;BME280;40313;50.308;30.374;2023-06-10T07:31:29;99366.06;;;29.87;62.61
54407;BME280;40313;50.308;30.374;2023-06-10T07:33:55;99371.47;;;29.10;68.18
54407;BME280;40313;50.308;30.374;2023-06-10T07:36:22;99358.19;;;29.22;71.83
54407;BME280;40313;50.308;30.374;2023-06-10T07:38:50;99368.97;;;28.63;74.30
54407;BME280;40313;50.308;30.374;2023-06-10T07:41:16;99373.59;;;29.01;75.92
54407;BME280;40313;50.308;30.374;2023-06-10T07:43:44;99368.41;;;29.45;72.58
54407;BME280;40313;50.308;30.374;2023-06-10T07:46:11;99363.56;;;29.28;73.75
54407;BME280;40313;50.308;30.374;2023-06-10T07:48:37;99361.97;;;29.07;76.14
54407;BME280;40313;50.308;30.374;2023-06-10T07:51:04;99357.03;;;29.04;75.36
54407;BME280;40313;50.308;30.374;2023-06-10T07:53:30;99356.97;;;29.24;73.76
54407;BME280;40313;50.308;30.374;2023-06-10T07:55:58;99370.25;;;29.06;75.13
54407;BME280;40313;50.308;30.374;2023-06-10T07:58:25;99373.28;;;28.71;76.71
54407;BME280;40313;50.308;30.374;2023-06-10T08:00:51;99362.38;;;28.45;76.88
54407;BME280;40313;50.308;30.374;2023-06-10T08:03:19;99361.16;;;28.35;79.01
54407;BME280;40313;50.308;30.374;2023-06-10T08:05:46;99364.47;;;28.37;80.75
54407;BME280;40313;50.308;30.374;2023-06-10T08:08:12;99363.44;;;28.24;81.13
54407;BME280;40313;50.308;30.374;2023-06-10T08:10:40;99361.78;;;28.37;78.65
54407;BME280;40313;50.308;30.374;2023-06-10T08:13:08;99362.84;;;28.16;79.19
54407;BME280;40313;50.308;30.374;2023-06-10T08:15:35;99357.84;;;28.46;79.77
54407;BME280;40313;50.308;30.374;2023-06-10T08:18:02;99357.41;;;29.08;80.40
54407;BME280;40313;50.308;30.374;2023-06-10T08:20:28;99355.50;;;29.28;77.24
54407;BME280;40313;50.308;30.374;2023-06-10T08:22:55;99350.28;;;29.65;74.53
54407;BME280;40313;50.308;30.374;2023-06-10T08:25:21;99344.03;;;29.72;71.09
54407;BME280;40313;50.308;30.374;2023-06-10T08:27:48;99354.88;;;29.26;71.76
54407;BME280;40313;50.308;30.374;2023-06-10T08:30:17;99350.66;;;29.44;71.22
54407;BME280;40313;50.308;30.374;2023-06-10T08:32:44;99361.97;;;29.53;74.80
54407;BME280;40313;50.308;30.374;2023-06-10T08:35:10;99352.53;;;29.69;79.37
54407;BME280;40313;50.308;30.374;2023-06-10T08:37:37;99353.44;;;29.56;78.18
54407;BME280;40313;50.308;30.374;2023-06-10T08:40:04;99348.34;;;29.02;79.81
54407;BME280;40313;50.308;30.374;2023-06-10T08:42:33;99347.16;;;28.98;76.36
54407;BME280;40313;50.308;30.374;2023-06-10T08:45:03;99353.63;;;29.22;75.63
54407;BME280;40313;50.308;30.374;2023-06-10T08:47:34;99353.19;;;28.87;76.68
54407;BME280;40313;50.308;30.374;2023-06-10T08:50:02;99352.88;;;29.08;78.87
54407;BME280;40313;50.308;30.374;2023-06-10T08:52:35;99356.34;;;28.70;80.88
54407;BME280;40313;50.308;30.374;2023-06-10T08:55:04;99358.94;;;28.97;81.29
54407;BME280;40313;50.308;30.374;2023-06-10T08:57:31;99353.91;;;29.07;76.81
54407;BME280;40313;50.308;30.374;2023-06-10T08:59:58;99363.28;;;28.98;74.83
54407;BME280;40313;50.308;30.374;2023-06-10T09:02:24;99355.47;;;28.90;75.73
54407;BME280;40313;50.308;30.374;2023-06-10T09:04:53;99355.81;;;29.45;79.34
54407;BME280;40313;50.308;30.374;2023-06-10T09:07:20;99353.91;;;29.53;80.23
54407;BME280;40313;50.308;30.374;2023-06-10T09:09:48;99362.06;;;28.94;80.48
54407;BME280;40313;50.308;30.374;2023-06-10T09:12:15;99351.44;;;30.02;79.71
54407;BME280;40313;50.308;30.374;2023-06-10T09:14:42;99359.78;;;29.93;81.11
54407;BME280;40313;50.308;30.374;2023-06-10T09:17:08;99348.94;;;29.75;77.91
54407;BME280;40313;50.308;30.374;2023-06-10T09:19:36;99363.88;;;29.45;77.71
54407;BME280;40313;50.308;30.374;2023-06-10T09:22:06;99352.53;;;29.69;77.66
54407;BME280;40313;50.308;30.374;2023-06-10T09:24:32;99345.03;;;29.07;76.57
54407;BME280;40313;50.308;30.374;2023-06-10T09:27:02;99352.69;;;29.03;75.63
54407;BME280;40313;50.308;30.374;2023-06-10T09:29:29;99350.25;;;29.40;78.09
54407;BME280;40313;50.308;30.374;2023-06-10T09:31:56;99350.72;;;29.30;77.60
54407;BME280;40313;50.308;30.374;2023-06-10T09:34:25;99350.13;;;29.28;76.07
54407;BME280;40313;50.308;30.374;2023-06-10T09:36:51;99339.75;;;29.64;78.02
54407;BME280;40313;50.308;30.374;2023-06-10T09:39:19;99349.03;;;29.68;76.09
54407;BME280;40313;50.308;30.374;2023-06-10T09:41:46;99330.13;;;29.75;75.45
54407;BME280;40313;50.308;30.374;2023-06-10T09:44:13;99346.63;;;29.53;75.09
54407;BME280;40313;50.308;30.374;2023-06-10T09:46:41;99330.22;;;29.68;75.34
54407;BME280;40313;50.308;30.374;2023-06-10T09:49:07;99321.78;;;29.58;71.99
54407;BME280;40313;50.308;30.374;2023-06-10T09:51:34;99324.53;;;29.51;74.23
54407;BME280;40313;50.308;30.374;2023-06-10T09:54:02;99319.09;;;29.90;74.05
54407;BME280;40313;50.308;30.374;2023-06-10T09:56:34;99328.16;;;29.38;77.72
54407;BME280;40313;50.308;30.374;2023-06-10T09:59:03;99319.59;;;29.73;76.00
54407;BME280;40313;50.308;30.374;2023-06-10T10:01:32;99315.13;;;29.67;75.89
54407;BME280;40313;50.308;30.374;2023-06-10T10:03:59;99315.00;;;29.55;75.24
54407;BME280;40313;50.308;30.374;2023-06-10T10:06:27;99322.00;;;29.31;74.35
54407;BME280;40313;50.308;30.374;2023-06-10T10:08:53;99316.22;;;29.85;73.61
54407;BME280;40313;50.308;30.374;2023-06-10T10:11:21;99307.13;;;29.86;73.06
54407;BME280;40313;50.308;30.374;2023-06-10T10:13:50;99306.91;;;29.87;71.93
54407;BME280;40313;50.308;30.374;2023-06-10T10:16:19;99310.66;;;29.79;70.40
54407;BME280;40313;50.308;30.374;2023-06-10T10:18:51;99307.53;;;29.82;73.02
54407;BME280;40313;50.308;30.374;2023-06-10T10:21:22;99296.50;;;29.91;75.98
54407;BME280;40313;50.308;30.374;2023-06-10T10:23:53;99305.84;;;29.63;76.32
54407;BME280;40313;50.308;30.374;2023-06-10T10:26:21;99313.72;;;29.90;73.75
54407;BME280;40313;50.308;30.374;2023-06-10T10:28:56;99301.63;;;29.74;76.56
54407;BME280;40313;50.308;30.374;2023-06-10T10:31:27;99302.84;;;30.40;71.87
54407;BME280;40313;50.308;30.374;2023-06-10T10:33:57;99312.78;;;30.21;67.54
54407;BME280;40313;50.308;30.374;2023-06-10T10:36:25;99306.06;;;30.98;65.83
54407;BME280;40313;50.308;30.374;2023-06-10T10:38:51;99297.75;;;30.99;65.47
54407;BME280;40313;50.308;30.374;2023-06-10T10:41:18;99298.34;;;31.20;64.23
54407;BME280;40313;50.308;30.374;2023-06-10T10:43:46;99302.28;;;30.57;62.98
54407;BME280;40313;50.308;30.374;2023-06-10T10:46:17;99300.31;;;30.64;65.51
54407;BME280;40313;50.308;30.374;2023-06-10T10:48:44;99301.47;;;29.94;66.18
54407;BME280;40313;50.308;30.374;2023-06-10T10:51:11;99302.59;;;29.54;67.74
54407;BME280;40313;50.308;30.374;2023-06-10T10:53:37;99293.78;;;30.34;67.90
54407;BME280;40313;50.308;30.374;2023-06-10T10:56:05;99298.22;;;30.66;66.01
54407;BME280;40313;50.308;30.374;2023-06-10T10:58:32;99297.16;;;30.30;66.02
54407;BME280;40313;50.308;30.374;2023-06-10T11:00:59;99306.25;;;30.84;65.68
54407;BME280;40313;50.308;30.374;2023-06-10T11:03:29;99296.97;;;30.80;66.08
54407;BME280;40313;50.308;30.374;2023-06-10T11:05:57;99297.13;;;30.85;64.43
54407;BME280;40313;50.308;30.374;2023-06-10T11:08:49;99300.06;;;30.84;64.23
54407;BME280;40313;50.308;30.374;2023-06-10T11:11:20;99289.88;;;29.93;66.17
54407;BME280;40313;50.308;30.374;2023-06-10T11:14:07;99292.81;;;30.10;65.72
54407;BME280;40313;50.308;30.374;2023-06-10T11:16:39;99279.88;;;30.19;65.47
54407;BME280;40313;50.308;30.374;2023-06-10T11:19:08;99298.28;;;30.59;64.69
54407;BME280;40313;50.308;30.374;2023-06-10T11:21:59;99294.91;;;30.08;63.67
54407;BME280;40313;50.308;30.374;2023-06-10T11:24:26;99282.81;;;30.55;62.11
54407;BME280;40313;50.308;30.374;2023-06-10T11:26:52;99280.47;;;30.77;62.47
54407;BME280;40313;50.308;30.374;2023-06-10T11:29:19;99286.53;;;30.54;62.27
54407;BME280;40313;50.308;30.374;2023-06-10T11:31:49;99286.81;;;29.64;61.70
54407;BME280;40313;50.308;30.374;2023-06-10T11:34:22;99274.84;;;29.35;61.53
54407;BME280;40313;50.308;30.374;2023-06-10T11:36:49;99274.47;;;29.57;62.82
54407;BME280;40313;50.308;30.374;2023-06-10T11:39:17;99265.56;;;29.81;64.29
54407;BME280;40313;50.308;30.374;2023-06-10T11:41:45;99269.72;;;29.77;65.49
54407;BME280;40313;50.308;30.374;2023-06-10T11:44:13;99265.50;;;29.63;66.42
54407;BME280;40313;50.308;30.374;2023-06-10T11:46:40;99256.47;;;29.32;68.11
54407;BME280;40313;50.308;30.374;2023-06-10T11:49:08;99269.47;;;29.35;68.35
54407;BME280;40313;50.308;30.374;2023-06-10T11:51:37;99263.47;;;29.84;65.37
54407;BME280;40313;50.308;30.374;2023-06-10T11:54:05;99266.25;;;29.20;67.75
54407;BME280;40313;50.308;30.374;2023-06-10T11:56:32;99269.06;;;29.00;67.48
54407;BME280;40313;50.308;30.374;2023-06-10T11:58:59;99268.06;;;29.83;68.66
54407;BME280;40313;50.308;30.374;2023-06-10T12:01:30;99262.75;;;30.13;70.01
54407;BME280;40313;50.308;30.374;2023-06-10T12:03:58;99253.88;;;30.31;69.28
54407;BME280;40313;50.308;30.374;2023-06-10T12:06:25;99256.31;;;30.70;69.51
54407;BME280;40313;50.308;30.374;2023-06-10T12:08:54;99256.34;;;30.52;70.97
54407;BME280;40313;50.308;30.374;2023-06-10T12:11:22;99257.41;;;30.81;69.83
54407;BME280;40313;50.308;30.374;2023-06-10T12:13:49;99257.25;;;30.27;66.97
54407;BME280;40313;50.308;30.374;2023-06-10T12:16:16;99260.38;;;30.24;67.78
54407;BME280;40313;50.308;30.374;2023-06-10T12:18:44;99247.81;;;29.99;68.32
54407;BME280;40313;50.308;30.374;2023-06-10T12:21:18;99241.19;;;29.76;70.67
54407;BME280;40313;50.308;30.374;2023-06-10T12:24:05;99244.25;;;29.61;70.12
54407;BME280;40313;50.308;30.374;2023-06-10T12:26:39;99242.03;;;29.26;71.90
54407;BME280;40313;50.308;30.374;2023-06-10T12:29:19;99247.16;;;29.60;73.06
54407;BME280;40313;50.308;30.374;2023-06-10T12:31:59;99250.13;;;29.20;74.11
54407;BME280;40313;50.308;30.374;2023-06-10T12:34:31;99241.38;;;29.56;75.91
54407;BME280;40313;50.308;30.374;2023-06-10T12:36:58;99231.75;;;30.11;71.68
54407;BME280;40313;50.308;30.374;2023-06-10T12:39:26;99237.81;;;29.88;70.05
54407;BME280;40313;50.308;30.374;2023-06-10T12:41:54;99238.25;;;29.85;70.39
54407;BME280;40313;50.308;30.374;2023-06-10T12:44:29;99236.59;;;30.21;69.45
54407;BME280;40313;50.308;30.374;2023-06-10T12:46:55;99264.94;;;30.05;67.31
54407;BME280;40313;50.308;30.374;2023-06-10T12:49:22;99258.44;;;29.94;61.00